Strona główna
METAR-TAF:

METAR-TAF

Lotnisko :

Rugby, Dakota Północna, Stany Zjednoczone

Szerokość geograficzna: 48-23-25N, Długość geograficzna: 100-01-27W, wysokość: 472 m

Aktualna obserwacja pogody

Raport powstał 23 minut temu, godzina 09:15 UTC
Wiatr 23 kt od wschodnio-południowy wschód w porywach dochodzący do 30 kt
Temperatura 15°C
Wilgotność 100%
Ciśnienie 999 hPa
Widzialność: 16.1 km
bezchmurnie

METAR: KRUG 070915Z AUTO 12023G30KT 10SM CLR 15/15 A2951 RMK AO2

czas: 04:38 (09:38 UTC)


TAF: brakujący

Obserwacja i prognoza pogody dla ponad 4000 lotnisk (raport METAR i TAF).

Dostępne stacje oznaczono żółtymi i czerwonymi punktami na mapie.

Najedź kursorem aby zobaczyć nazwę stacji.

Kliknij aby zobaczyć obserwacje i prognozy pogody.

Aby zmienić mapę: kliknij na zielony przycisk z czarnym krzyżykiem, aby powiększyć; na zielony przycisk z myślnikiem, aby pomniejszyć; na zielone strzałki, aby przejść do map sąsiednich.


METAR-TAF: